Sara Borchard — V2BY8 — position and weather

sailwx.info

Track history (hours):
 
Tides and Currents Weather Stations Pressure Air Temp Water Temp Dewpoint Dewpoint Depression Visibility Wind Speed Wind Dir Waves Ship Positions

Sara Borchard

Last reported at 2015-Feb-26 19:16 UTC. Time now 2015-Mar-03 11:18 UTC.
Position N 42°39' E 009°49'.

Length 134 m; draft 8.4 m.

Type: Ship (hazmat cat A). MMSI: 304962000.

Date/timePositionNaut miles runAvg speedWind from/ knotsBaromVisibWave heightAir tempDewpointWater temp
2015-Feb-26 19:16N 42°39' E 009°49'2816.2
2015-Feb-26 17:33N 43°05' E 009°37'1716.9
2015-Feb-26 16:33N 43°21' E 009°30'1717.0
2015-Feb-26 15:33N 43°37' E 009°22'1716.8
2015-Feb-26 14:33N 43°52' E 009°13'1717.0
2015-Feb-26 13:33N 44°08' E 009°05'1615.8
2015-Feb-26 12:33N 44°23' E 008°57'2 2.3
2015-Feb-26 11:32N 44°24' E 008°54'0 0.0
2015-Feb-26 10:28N 44°24' E 008°54'0 0.0
2015-Feb-26 09:31N 44°24' E 008°54'0 0.0
2015-Feb-26 08:31N 44°24' E 008°54'0 0.0
2015-Feb-26 07:33N 44°24' E 008°54'0 0.0
2015-Feb-26 06:33N 44°24' E 008°54'0 0.0
2015-Feb-26 05:32N 44°24' E 008°54'0 0.0
2015-Feb-26 04:32N 44°24' E 008°54'0 0.0
2015-Feb-26 03:31N 44°24' E 008°54'0 0.0
2015-Feb-26 02:31N 44°24' E 008°54'0 0.0
2015-Feb-26 01:31N 44°24' E 008°54'0 0.0
2015-Feb-26 00:33N 44°24' E 008°54'5 4.7
2015-Feb-25 23:33N 44°22' E 008°60'1 1.3
2015-Feb-25 22:33N 44°22' E 008°58'0 0.4
2015-Feb-25 21:33N 44°22' E 008°58'0 0.1
2015-Feb-25 20:33N 44°22' E 008°58'2 1.5
2015-Feb-25 19:33N 44°22' E 009°00'0 0.0
2015-Feb-25 18:33N 44°22' E 008°60'0 0.0
2015-Feb-25 17:33N 44°22' E 008°60'0 0.1
2015-Feb-25 16:33N 44°22' E 008°60'1413.9
2015-Feb-25 15:33N 44°11' E 008°48'1514.9
2015-Feb-25 14:34N 44°00' E 008°33'4314.3
2015-Feb-25 11:34N 43°32' E 007°48'1616.0
2015-Feb-25 10:33N 43°24' E 007°30'1615.6
2015-Feb-25 09:33N 43°15' E 007°12'1515.6
2015-Feb-25 08:34N 43°07' E 006°53'1515.1
2015-Feb-25 07:34N 42°60' E 006°35'6115.2
2015-Feb-25 03:33N 43°09' E 005°13'1211.6
2015-Feb-25 02:33N 43°20' E 005°17'2 1.7
2015-Feb-25 01:23N 43°21' E 005°20'0 0.0
2015-Feb-24 21:12N 43°21' E 005°20'0 0.0
2015-Feb-24 17:31N 43°21' E 005°20'0 0.0
2015-Feb-24 15:12N 43°21' E 005°20'0 0.0
2015-Feb-24 14:09N 43°21' E 005°20'0 0.0
2015-Feb-24 13:23N 43°21' E 005°20'0 0.0
2015-Feb-24 12:08N 43°21' E 005°20'0 0.0
2015-Feb-24 10:33N 43°21' E 005°20'7 7.1
2015-Feb-24 09:33N 43°17' E 005°12'10 8.8
2015-Feb-24 08:27N 43°07' E 005°09'9 9.7
2015-Feb-24 07:29N 43°01' E 005°00'9 8.7
2015-Feb-24 06:30N 42°54' E 004°53'8 8.5
2015-Feb-24 05:33N 42°48' E 004°45'1211.9
2015-Feb-24 04:33N 42°39' E 004°34'1414.2
2015-Feb-24 03:34N 42°29' E 004°21'1414.1
2015-Feb-24 02:33N 42°19' E 004°08'1413.7
2015-Feb-24 01:33N 42°10' E 003°54'1313.2
2015-Feb-24 00:33N 42°02' E 003°40'1313.0
2015-Feb-23 23:33N 41°54' E 003°26'1413.8
2015-Feb-23 22:33N 41°46' E 003°11'1514.5
2015-Feb-23 21:32N 41°37' E 002°55'1515.4
2015-Feb-23 20:33N 41°28' E 002°39'1716.2
2015-Feb-23 19:31N 41°18' E 002°20'8 8.4
2015-Feb-23 18:33N 41°21' E 002°10'0 0.2
2015-Feb-23 17:10N 41°21' E 002°10'1 0.1
2015-Feb-23 05:29N 41°20' E 002°10'10 9.8
2015-Feb-23 04:26N 41°13' E 002°19'1415.5
2015-Feb-23 03:33N 41°06' E 002°35'1514.7
2015-Feb-23 02:32N 40°60' E 002°53'1414.2
2015-Feb-23 01:31N 40°53' E 003°10'24610.5
2015-Feb-22 02:08N 38°58' E 007°54'913.6
2015-Feb-22 01:31N 38°54' E 008°03'1514.6
2015-Feb-22 00:30N 38°47' E 008°20'1514.7
2015-Feb-21 23:31N 38°42' E 008°38'1515.2
2015-Feb-21 22:33N 38°37' E 008°55'14415.3
2015-Feb-21 13:08N 37°46' E 011°46'9315.8
2015-Feb-21 07:12N 36°58' E 013°27'1015.2
2015-Feb-21 06:33N 36°53' E 013°38'1515.3
2015-Feb-21 05:33N 36°46' E 013°55'1514.5
2015-Feb-21 04:33N 36°39' E 014°10'1414.5
2015-Feb-21 03:33N 36°32' E 014°26'  
Track history (hours):
 
Tides and Currents Weather Stations Pressure Air Temp Water Temp Dewpoint Dewpoint Depression Visibility Wind Speed Wind Dir Waves Ship Positions

Sara Borchard

Last reported at 2015-Feb-26 19:16 UTC. Time now 2015-Mar-03 11:18 UTC.
Position N 42°39' E 009°49'.

Length 134 m; draft 8.4 m.

Type: Ship (hazmat cat A). MMSI: 304962000.

Date/timePositionNaut miles runAvg speedWind from/ knotsBaromVisibWave heightAir tempDewpointWater temp
2015-Feb-26 19:16N 42°39' E 009°49'2816.2
2015-Feb-26 17:33N 43°05' E 009°37'1716.9
2015-Feb-26 16:33N 43°21' E 009°30'1717.0
2015-Feb-26 15:33N 43°37' E 009°22'1716.8
2015-Feb-26 14:33N 43°52' E 009°13'1717.0
2015-Feb-26 13:33N 44°08' E 009°05'1615.8
2015-Feb-26 12:33N 44°23' E 008°57'2 2.3
2015-Feb-26 11:32N 44°24' E 008°54'0 0.0
2015-Feb-26 10:28N 44°24' E 008°54'0 0.0
2015-Feb-26 09:31N 44°24' E 008°54'0 0.0
2015-Feb-26 08:31N 44°24' E 008°54'0 0.0
2015-Feb-26 07:33N 44°24' E 008°54'0 0.0
2015-Feb-26 06:33N 44°24' E 008°54'0 0.0
2015-Feb-26 05:32N 44°24' E 008°54'0 0.0
2015-Feb-26 04:32N 44°24' E 008°54'0 0.0
2015-Feb-26 03:31N 44°24' E 008°54'0 0.0
2015-Feb-26 02:31N 44°24' E 008°54'0 0.0
2015-Feb-26 01:31N 44°24' E 008°54'0 0.0
2015-Feb-26 00:33N 44°24' E 008°54'5 4.7
2015-Feb-25 23:33N 44°22' E 008°60'1 1.3
2015-Feb-25 22:33N 44°22' E 008°58'0 0.4
2015-Feb-25 21:33N 44°22' E 008°58'0 0.1
2015-Feb-25 20:33N 44°22' E 008°58'2 1.5
2015-Feb-25 19:33N 44°22' E 009°00'0 0.0
2015-Feb-25 18:33N 44°22' E 008°60'0 0.0
2015-Feb-25 17:33N 44°22' E 008°60'0 0.1
2015-Feb-25 16:33N 44°22' E 008°60'1413.9
2015-Feb-25 15:33N 44°11' E 008°48'1514.9
2015-Feb-25 14:34N 44°00' E 008°33'4314.3
2015-Feb-25 11:34N 43°32' E 007°48'1616.0
2015-Feb-25 10:33N 43°24' E 007°30'1615.6
2015-Feb-25 09:33N 43°15' E 007°12'1515.6
2015-Feb-25 08:34N 43°07' E 006°53'1515.1
2015-Feb-25 07:34N 42°60' E 006°35'6115.2
2015-Feb-25 03:33N 43°09' E 005°13'1211.6
2015-Feb-25 02:33N 43°20' E 005°17'2 1.7
2015-Feb-25 01:23N 43°21' E 005°20'0 0.0
2015-Feb-24 21:12N 43°21' E 005°20'0 0.0
2015-Feb-24 17:31N 43°21' E 005°20'0 0.0
2015-Feb-24 15:12N 43°21' E 005°20'0 0.0
2015-Feb-24 14:09N 43°21' E 005°20'0 0.0
2015-Feb-24 13:23N 43°21' E 005°20'0 0.0
2015-Feb-24 12:08N 43°21' E 005°20'0 0.0
2015-Feb-24 10:33N 43°21' E 005°20'7 7.1
2015-Feb-24 09:33N 43°17' E 005°12'10 8.8
2015-Feb-24 08:27N 43°07' E 005°09'9 9.7
2015-Feb-24 07:29N 43°01' E 005°00'9 8.7
2015-Feb-24 06:30N 42°54' E 004°53'8 8.5
2015-Feb-24 05:33N 42°48' E 004°45'1211.9
2015-Feb-24 04:33N 42°39' E 004°34'1414.2
2015-Feb-24 03:34N 42°29' E 004°21'1414.1
2015-Feb-24 02:33N 42°19' E 004°08'1413.7
2015-Feb-24 01:33N 42°10' E 003°54'1313.2
2015-Feb-24 00:33N 42°02' E 003°40'1313.0
2015-Feb-23 23:33N 41°54' E 003°26'1413.8
2015-Feb-23 22:33N 41°46' E 003°11'1514.5
2015-Feb-23 21:32N 41°37' E 002°55'1515.4
2015-Feb-23 20:33N 41°28' E 002°39'1716.2
2015-Feb-23 19:31N 41°18' E 002°20'8 8.4
2015-Feb-23 18:33N 41°21' E 002°10'0 0.2
2015-Feb-23 17:10N 41°21' E 002°10'1 0.1
2015-Feb-23 05:29N 41°20' E 002°10'10 9.8
2015-Feb-23 04:26N 41°13' E 002°19'1415.5
2015-Feb-23 03:33N 41°06' E 002°35'1514.7
2015-Feb-23 02:32N 40°60' E 002°53'1414.2
2015-Feb-23 01:31N 40°53' E 003°10'24610.5
2015-Feb-22 02:08N 38°58' E 007°54'913.6
2015-Feb-22 01:31N 38°54' E 008°03'1514.6
2015-Feb-22 00:30N 38°47' E 008°20'1514.7
2015-Feb-21 23:31N 38°42' E 008°38'1515.2
2015-Feb-21 22:33N 38°37' E 008°55'14415.3
2015-Feb-21 13:08N 37°46' E 011°46'9315.8
2015-Feb-21 07:12N 36°58' E 013°27'1015.2
2015-Feb-21 06:33N 36°53' E 013°38'1515.3
2015-Feb-21 05:33N 36°46' E 013°55'1514.5
2015-Feb-21 04:33N 36°39' E 014°10'1414.5
2015-Feb-21 03:33N 36°32' E 014°26'  

Dump ship's entire track history